sensor_id;sensor_type;location;lat;lon;timestamp;noise_LAeq;noise_LA_min;noise_LA_max;noise_LA01;noise_LA95
70077;Laerm;57448;51.490;5.436;2024-02-28T00:01:36;40.81;35.93;44.94;;
70077;Laerm;57448;51.490;5.436;2024-02-28T00:04:01;39.75;36.76;44.39;;
70077;Laerm;57448;51.490;5.436;2024-02-28T00:06:27;39.79;35.94;44.57;;
70077;Laerm;57448;51.490;5.436;2024-02-28T00:08:52;38.98;35.71;43.33;;
70077;Laerm;57448;51.490;5.436;2024-02-28T00:11:19;40.21;34.61;44.83;;
70077;Laerm;57448;51.490;5.436;2024-02-28T00:13:45;40.63;37.58;46.22;;
70077;Laerm;57448;51.490;5.436;2024-02-28T00:16:10;38.69;35.39;41.89;;
70077;Laerm;57448;51.490;5.436;2024-02-28T00:18:36;39.57;34.98;44.55;;
70077;Laerm;57448;51.490;5.436;2024-02-28T00:21:02;40.16;35.40;48.12;;
70077;Laerm;57448;51.490;5.436;2024-02-28T00:23:28;39.78;34.64;44.76;;
70077;Laerm;57448;51.490;5.436;2024-02-28T00:25:54;38.60;34.09;43.97;;
70077;Laerm;57448;51.490;5.436;2024-02-28T00:28:19;38.13;32.69;42.97;;
70077;Laerm;57448;51.490;5.436;2024-02-28T00:30:44;37.85;34.20;42.75;;
70077;Laerm;57448;51.490;5.436;2024-02-28T00:33:10;39.38;36.12;43.57;;
70077;Laerm;57448;51.490;5.436;2024-02-28T00:35:35;40.19;36.72;43.51;;
70077;Laerm;57448;51.490;5.436;2024-02-28T00:38:01;39.54;33.44;48.26;;
70077;Laerm;57448;51.490;5.436;2024-02-28T00:40:26;39.94;35.93;45.28;;
70077;Laerm;57448;51.490;5.436;2024-02-28T00:42:52;38.07;33.94;43.89;;
70077;Laerm;57448;51.490;5.436;2024-02-28T00:45:18;39.44;33.84;44.68;;
70077;Laerm;57448;51.490;5.436;2024-02-28T00:47:43;39.67;36.12;43.46;;
70077;Laerm;57448;51.490;5.436;2024-02-28T00:50:09;38.96;33.65;44.34;;
70077;Laerm;57448;51.490;5.436;2024-02-28T00:52:34;39.42;35.27;43.64;;
70077;Laerm;57448;51.490;5.436;2024-02-28T00:54:59;39.89;35.32;45.35;;
70077;Laerm;57448;51.490;5.436;2024-02-28T00:57:25;38.77;34.37;44.36;;
70077;Laerm;57448;51.490;5.436;2024-02-28T00:59:50;38.41;35.22;44.52;;
70077;Laerm;57448;51.490;5.436;2024-02-28T01:02:15;40.93;35.64;45.73;;
70077;Laerm;57448;51.490;5.436;2024-02-28T01:04:41;41.46;36.92;45.85;;
70077;Laerm;57448;51.490;5.436;2024-02-28T01:07:06;40.66;36.93;45.70;;
70077;Laerm;57448;51.490;5.436;2024-02-28T01:09:32;39.82;34.34;45.34;;
70077;Laerm;57448;51.490;5.436;2024-02-28T01:11:57;39.40;34.27;44.85;;
70077;Laerm;57448;51.490;5.436;2024-02-28T01:14:22;39.42;34.78;44.77;;
70077;Laerm;57448;51.490;5.436;2024-02-28T01:16:48;40.61;37.48;45.27;;
70077;Laerm;57448;51.490;5.436;2024-02-28T01:19:15;39.95;36.13;45.13;;
70077;Laerm;57448;51.490;5.436;2024-02-28T01:21:40;39.50;36.06;46.57;;
70077;Laerm;57448;51.490;5.436;2024-02-28T01:24:06;39.56;35.62;44.21;;
70077;Laerm;57448;51.490;5.436;2024-02-28T01:26:31;40.69;36.57;47.74;;
70077;Laerm;57448;51.490;5.436;2024-02-28T01:28:56;40.83;36.27;45.38;;
70077;Laerm;57448;51.490;5.436;2024-02-28T01:31:22;39.47;35.67;45.46;;
70077;Laerm;57448;51.490;5.436;2024-02-28T01:33:47;38.91;35.14;43.06;;
70077;Laerm;57448;51.490;5.436;2024-02-28T01:36:13;39.69;34.24;44.40;;
70077;Laerm;57448;51.490;5.436;2024-02-28T01:38:38;39.74;36.21;49.08;;
70077;Laerm;57448;51.490;5.436;2024-02-28T01:41:04;39.06;33.88;44.75;;
70077;Laerm;57448;51.490;5.436;2024-02-28T01:43:30;39.91;35.40;49.44;;
70077;Laerm;57448;51.490;5.436;2024-02-28T01:45:55;38.40;34.45;43.58;;
70077;Laerm;57448;51.490;5.436;2024-02-28T01:48:21;37.50;33.74;43.22;;
70077;Laerm;57448;51.490;5.436;2024-02-28T01:50:46;39.33;34.93;45.62;;
70077;Laerm;57448;51.490;5.436;2024-02-28T01:53:12;39.64;35.15;44.74;;
70077;Laerm;57448;51.490;5.436;2024-02-28T01:55:38;39.24;34.42;44.66;;
70077;Laerm;57448;51.490;5.436;2024-02-28T01:58:04;37.99;33.80;46.88;;
70077;Laerm;57448;51.490;5.436;2024-02-28T02:00:32;39.26;35.74;43.20;;
70077;Laerm;57448;51.490;5.436;2024-02-28T02:02:57;38.86;35.15;44.01;;
70077;Laerm;57448;51.490;5.436;2024-02-28T02:05:23;38.15;34.16;44.00;;
70077;Laerm;57448;51.490;5.436;2024-02-28T02:07:49;40.65;35.94;44.40;;
70077;Laerm;57448;51.490;5.436;2024-02-28T02:10:14;39.24;35.25;44.71;;
70077;Laerm;57448;51.490;5.436;2024-02-28T02:12:40;39.23;35.13;45.28;;
70077;Laerm;57448;51.490;5.436;2024-02-28T02:15:05;40.18;36.24;44.86;;
70077;Laerm;57448;51.490;5.436;2024-02-28T02:17:31;41.63;37.26;49.35;;
70077;Laerm;57448;51.490;5.436;2024-02-28T02:19:56;41.85;38.18;48.18;;
70077;Laerm;57448;51.490;5.436;2024-02-28T02:22:21;39.75;33.53;46.91;;
70077;Laerm;57448;51.490;5.436;2024-02-28T02:24:48;41.12;35.37;46.62;;
70077;Laerm;57448;51.490;5.436;2024-02-28T02:27:13;40.06;35.20;45.21;;
70077;Laerm;57448;51.490;5.436;2024-02-28T02:29:39;40.61;35.72;44.48;;
70077;Laerm;57448;51.490;5.436;2024-02-28T02:32:04;40.76;36.14;45.17;;
70077;Laerm;57448;51.490;5.436;2024-02-28T02:34:30;40.13;35.39;44.35;;
70077;Laerm;57448;51.490;5.436;2024-02-28T02:36:55;38.35;35.26;43.42;;
70077;Laerm;57448;51.490;5.436;2024-02-28T02:39:20;40.90;35.44;45.85;;
70077;Laerm;57448;51.490;5.436;2024-02-28T02:41:46;41.48;38.22;45.51;;
70077;Laerm;57448;51.490;5.436;2024-02-28T02:44:12;44.44;36.46;59.26;;
70077;Laerm;57448;51.490;5.436;2024-02-28T02:46:37;40.88;35.55;47.76;;
70077;Laerm;57448;51.490;5.436;2024-02-28T02:49:04;42.96;37.72;48.84;;
70077;Laerm;57448;51.490;5.436;2024-02-28T02:51:29;40.59;36.45;45.48;;
70077;Laerm;57448;51.490;5.436;2024-02-28T02:53:55;41.04;35.75;47.32;;
70077;Laerm;57448;51.490;5.436;2024-02-28T02:56:20;39.42;35.22;44.41;;
70077;Laerm;57448;51.490;5.436;2024-02-28T02:58:45;40.28;35.06;46.14;;
70077;Laerm;57448;51.490;5.436;2024-02-28T03:01:11;38.61;34.87;44.28;;
70077;Laerm;57448;51.490;5.436;2024-02-28T03:03:36;41.58;37.79;46.64;;
70077;Laerm;57448;51.490;5.436;2024-02-28T03:06:02;41.88;37.86;47.15;;
70077;Laerm;57448;51.490;5.436;2024-02-28T03:08:28;42.64;38.77;46.59;;
70077;Laerm;57448;51.490;5.436;2024-02-28T03:10:53;42.11;38.21;46.83;;
70077;Laerm;57448;51.490;5.436;2024-02-28T03:13:19;42.68;37.89;46.04;;
70077;Laerm;57448;51.490;5.436;2024-02-28T03:15:45;41.88;38.45;46.36;;
70077;Laerm;57448;51.490;5.436;2024-02-28T03:18:10;40.65;36.61;46.74;;
70077;Laerm;57448;51.490;5.436;2024-02-28T03:20:35;40.80;37.68;43.77;;
70077;Laerm;57448;51.490;5.436;2024-02-28T03:23:03;40.79;37.31;45.00;;
70077;Laerm;57448;51.490;5.436;2024-02-28T03:25:30;41.65;37.68;47.99;;
70077;Laerm;57448;51.490;5.436;2024-02-28T03:27:56;41.62;37.26;46.82;;
70077;Laerm;57448;51.490;5.436;2024-02-28T03:30:21;41.71;36.95;48.45;;
70077;Laerm;57448;51.490;5.436;2024-02-28T03:32:46;41.89;37.84;46.59;;
70077;Laerm;57448;51.490;5.436;2024-02-28T03:35:12;42.93;38.58;47.96;;
70077;Laerm;57448;51.490;5.436;2024-02-28T03:37:37;42.49;38.38;46.60;;
70077;Laerm;57448;51.490;5.436;2024-02-28T03:40:02;41.36;37.92;46.29;;
70077;Laerm;57448;51.490;5.436;2024-02-28T03:42:28;42.43;37.95;47.93;;
70077;Laerm;57448;51.490;5.436;2024-02-28T03:44:53;42.89;38.98;49.12;;
70077;Laerm;57448;51.490;5.436;2024-02-28T03:47:19;42.95;38.81;50.16;;
70077;Laerm;57448;51.490;5.436;2024-02-28T03:49:44;42.14;37.83;48.89;;
70077;Laerm;57448;51.490;5.436;2024-02-28T03:52:10;42.44;38.87;46.05;;
70077;Laerm;57448;51.490;5.436;2024-02-28T03:54:35;42.61;38.92;47.29;;
70077;Laerm;57448;51.490;5.436;2024-02-28T03:57:01;43.42;39.69;47.72;;
70077;Laerm;57448;51.490;5.436;2024-02-28T03:59:26;43.00;39.35;51.15;;
70077;Laerm;57448;51.490;5.436;2024-02-28T04:01:51;43.76;40.78;47.66;;
70077;Laerm;57448;51.490;5.436;2024-02-28T04:04:17;42.90;38.56;47.61;;
70077;Laerm;57448;51.490;5.436;2024-02-28T04:06:42;43.06;39.66;45.87;;
70077;Laerm;57448;51.490;5.436;2024-02-28T04:09:07;43.82;40.38;51.14;;
70077;Laerm;57448;51.490;5.436;2024-02-28T04:11:33;44.19;41.19;47.64;;
70077;Laerm;57448;51.490;5.436;2024-02-28T04:13:59;44.19;40.99;47.89;;
70077;Laerm;57448;51.490;5.436;2024-02-28T04:16:24;44.96;41.27;48.54;;
70077;Laerm;57448;51.490;5.436;2024-02-28T04:18:49;45.64;42.17;49.03;;
70077;Laerm;57448;51.490;5.436;2024-02-28T04:21:15;46.29;42.58;49.86;;
70077;Laerm;57448;51.490;5.436;2024-02-28T04:23:40;44.91;41.86;48.83;;
70077;Laerm;57448;51.490;5.436;2024-02-28T04:26:07;45.40;42.64;48.73;;
70077;Laerm;57448;51.490;5.436;2024-02-28T04:28:32;45.08;41.43;47.90;;
70077;Laerm;57448;51.490;5.436;2024-02-28T04:30:57;45.48;42.58;48.46;;
70077;Laerm;57448;51.490;5.436;2024-02-28T04:33:23;45.73;43.36;48.68;;
70077;Laerm;57448;51.490;5.436;2024-02-28T04:35:48;45.03;41.68;47.72;;
70077;Laerm;57448;51.490;5.436;2024-02-28T04:38:13;46.28;43.20;51.19;;
70077;Laerm;57448;51.490;5.436;2024-02-28T04:40:39;46.50;43.62;49.60;;
70077;Laerm;57448;51.490;5.436;2024-02-28T04:43:04;46.68;44.11;51.41;;
70077;Laerm;57448;51.490;5.436;2024-02-28T04:45:30;46.87;43.45;52.94;;
70077;Laerm;57448;51.490;5.436;2024-02-28T04:47:55;47.80;43.95;71.14;;
70077;Laerm;57448;51.490;5.436;2024-02-28T04:50:21;46.91;44.52;50.88;;
70077;Laerm;57448;51.490;5.436;2024-02-28T04:52:47;46.60;43.88;49.84;;
70077;Laerm;57448;51.490;5.436;2024-02-28T04:55:12;46.79;44.00;49.92;;
70077;Laerm;57448;51.490;5.436;2024-02-28T04:57:38;46.64;44.01;51.73;;
70077;Laerm;57448;51.490;5.436;2024-02-28T05:00:03;46.71;43.92;51.38;;
70077;Laerm;57448;51.490;5.436;2024-02-28T05:02:29;46.70;44.19;50.10;;
70077;Laerm;57448;51.490;5.436;2024-02-28T05:04:54;46.65;44.13;50.19;;
70077;Laerm;57448;51.490;5.436;2024-02-28T05:07:20;47.11;44.19;49.88;;
70077;Laerm;57448;51.490;5.436;2024-02-28T05:09:45;46.80;43.73;51.69;;
70077;Laerm;57448;51.490;5.436;2024-02-28T05:12:10;47.18;43.98;50.97;;
70077;Laerm;57448;51.490;5.436;2024-02-28T05:14:37;47.05;44.80;50.24;;
70077;Laerm;57448;51.490;5.436;2024-02-28T05:17:02;47.24;45.08;53.48;;
70077;Laerm;57448;51.490;5.436;2024-02-28T05:19:28;47.93;44.89;51.77;;
70077;Laerm;57448;51.490;5.436;2024-02-28T05:21:53;48.03;45.42;51.65;;
70077;Laerm;57448;51.490;5.436;2024-02-28T05:24:18;47.95;45.34;51.07;;
70077;Laerm;57448;51.490;5.436;2024-02-28T05:26:44;47.72;46.05;50.38;;
70077;Laerm;57448;51.490;5.436;2024-02-28T05:29:09;47.51;45.27;51.69;;
70077;Laerm;57448;51.490;5.436;2024-02-28T05:31:34;47.95;45.94;50.55;;
70077;Laerm;57448;51.490;5.436;2024-02-28T05:34:01;47.96;45.79;50.97;;
70077;Laerm;57448;51.490;5.436;2024-02-28T05:36:28;48.27;46.49;51.75;;
70077;Laerm;57448;51.490;5.436;2024-02-28T05:38:54;48.78;46.82;51.95;;
70077;Laerm;57448;51.490;5.436;2024-02-28T05:41:19;48.68;45.24;55.66;;
70077;Laerm;57448;51.490;5.436;2024-02-28T05:43:45;50.25;46.59;59.55;;
70077;Laerm;57448;51.490;5.436;2024-02-28T05:46:13;51.30;46.60;60.79;;
70077;Laerm;57448;51.490;5.436;2024-02-28T05:48:45;50.43;46.13;61.74;;
70077;Laerm;57448;51.490;5.436;2024-02-28T05:51:11;49.00;45.84;57.72;;
70077;Laerm;57448;51.490;5.436;2024-02-28T05:53:36;49.10;46.31;54.11;;
70077;Laerm;57448;51.490;5.436;2024-02-28T05:56:03;51.76;46.47;66.08;;
70077;Laerm;57448;51.490;5.436;2024-02-28T05:58:28;53.51;46.14;66.82;;
70077;Laerm;57448;51.490;5.436;2024-02-28T06:00:54;50.00;45.92;58.64;;
70077;Laerm;57448;51.490;5.436;2024-02-28T06:03:19;55.04;45.86;64.28;;
70077;Laerm;57448;51.490;5.436;2024-02-28T06:05:45;57.00;46.26;66.14;;
70077;Laerm;57448;51.490;5.436;2024-02-28T06:08:11;50.44;45.66;61.85;;
70077;Laerm;57448;51.490;5.436;2024-02-28T06:10:37;52.53;46.10;63.78;;
70077;Laerm;57448;51.490;5.436;2024-02-28T06:13:02;53.46;45.65;65.02;;
70077;Laerm;57448;51.490;5.436;2024-02-28T06:15:28;55.54;46.16;71.06;;
70077;Laerm;57448;51.490;5.436;2024-02-28T06:17:56;54.73;45.99;69.61;;
70077;Laerm;57448;51.490;5.436;2024-02-28T06:20:21;55.81;46.11;72.40;;
70077;Laerm;57448;51.490;5.436;2024-02-28T06:22:46;55.45;45.79;70.14;;
70077;Laerm;57448;51.490;5.436;2024-02-28T06:25:12;60.32;45.62;76.09;;
70077;Laerm;57448;51.490;5.436;2024-02-28T06:27:44;55.18;46.61;68.67;;
70077;Laerm;57448;51.490;5.436;2024-02-28T06:30:10;54.81;46.03;68.30;;
70077;Laerm;57448;51.490;5.436;2024-02-28T06:32:35;49.45;46.00;63.04;;
70077;Laerm;57448;51.490;5.436;2024-02-28T06:35:01;50.46;45.85;64.76;;
70077;Laerm;57448;51.490;5.436;2024-02-28T06:37:26;51.80;46.32;63.28;;
70077;Laerm;57448;51.490;5.436;2024-02-28T06:39:53;52.42;46.09;64.63;;
70077;Laerm;57448;51.490;5.436;2024-02-28T06:42:18;53.67;46.52;73.03;;
70077;Laerm;57448;51.490;5.436;2024-02-28T06:44:43;51.80;45.91;66.60;;
70077;Laerm;57448;51.490;5.436;2024-02-28T06:47:09;51.97;45.98;69.82;;
70077;Laerm;57448;51.490;5.436;2024-02-28T06:49:34;50.52;46.09;63.81;;
70077;Laerm;57448;51.490;5.436;2024-02-28T06:52:00;50.86;46.03;68.04;;
70077;Laerm;57448;51.490;5.436;2024-02-28T06:54:26;49.21;45.79;58.97;;
70077;Laerm;57448;51.490;5.436;2024-02-28T06:56:52;49.63;46.08;63.10;;
70077;Laerm;57448;51.490;5.436;2024-02-28T06:59:17;47.79;45.72;54.03;;
70077;Laerm;57448;51.490;5.436;2024-02-28T07:01:42;49.07;45.37;68.28;;
70077;Laerm;57448;51.490;5.436;2024-02-28T07:04:08;54.62;46.60;66.09;;
70077;Laerm;57448;51.490;5.436;2024-02-28T07:06:33;53.89;46.09;76.42;;
70077;Laerm;57448;51.490;5.436;2024-02-28T07:08:59;49.55;45.44;66.97;;
70077;Laerm;57448;51.490;5.436;2024-02-28T07:11:24;49.60;45.40;66.30;;
70077;Laerm;57448;51.490;5.436;2024-02-28T07:13:49;49.41;45.99;59.65;;
70077;Laerm;57448;51.490;5.436;2024-02-28T07:16:15;50.24;45.76;64.96;;
70077;Laerm;57448;51.490;5.436;2024-02-28T07:18:40;51.19;46.02;64.16;;
70077;Laerm;57448;51.490;5.436;2024-02-28T07:21:05;54.67;46.51;68.10;;
70077;Laerm;57448;51.490;5.436;2024-02-28T07:23:32;52.80;46.09;68.30;;
70077;Laerm;57448;51.490;5.436;2024-02-28T07:25:57;52.57;46.58;64.03;;
70077;Laerm;57448;51.490;5.436;2024-02-28T07:28:22;51.23;46.17;61.25;;
70077;Laerm;57448;51.490;5.436;2024-02-28T07:30:48;52.98;45.89;69.14;;
70077;Laerm;57448;51.490;5.436;2024-02-28T07:33:13;51.60;46.12;61.01;;
70077;Laerm;57448;51.490;5.436;2024-02-28T07:35:45;48.29;45.45;56.30;;
70077;Laerm;57448;51.490;5.436;2024-02-28T07:38:11;48.49;45.59;61.66;;
70077;Laerm;57448;51.490;5.436;2024-02-28T07:40:36;54.17;45.80;66.18;;
70077;Laerm;57448;51.490;5.436;2024-02-28T07:43:01;49.66;45.84;63.20;;
70077;Laerm;57448;51.490;5.436;2024-02-28T07:45:27;52.37;45.91;64.73;;
70077;Laerm;57448;51.490;5.436;2024-02-28T07:47:57;50.23;45.70;61.16;;
70077;Laerm;57448;51.490;5.436;2024-02-28T07:50:23;49.95;46.39;59.77;;
70077;Laerm;57448;51.490;5.436;2024-02-28T07:52:48;51.21;46.26;70.29;;
70077;Laerm;57448;51.490;5.436;2024-02-28T07:55:14;48.53;45.30;53.76;;
70077;Laerm;57448;51.490;5.436;2024-02-28T07:57:39;55.34;45.65;66.89;;
70077;Laerm;57448;51.490;5.436;2024-02-28T08:00:04;50.38;46.09;63.52;;
70077;Laerm;57448;51.490;5.436;2024-02-28T08:02:30;54.40;45.90;69.01;;
70077;Laerm;57448;51.490;5.436;2024-02-28T08:04:56;51.85;44.91;66.54;;
70077;Laerm;57448;51.490;5.436;2024-02-28T08:07:21;52.24;43.55;67.45;;
70077;Laerm;57448;51.490;5.436;2024-02-28T08:09:46;55.50;43.31;70.40;;
70077;Laerm;57448;51.490;5.436;2024-02-28T08:12:12;50.45;43.96;65.30;;
70077;Laerm;57448;51.490;5.436;2024-02-28T08:14:37;52.13;43.46;66.86;;
70077;Laerm;57448;51.490;5.436;2024-02-28T08:17:03;51.98;43.62;70.83;;
70077;Laerm;57448;51.490;5.436;2024-02-28T08:19:28;53.37;43.96;66.18;;
70077;Laerm;57448;51.490;5.436;2024-02-28T08:21:53;47.61;43.14;58.88;;
70077;Laerm;57448;51.490;5.436;2024-02-28T08:24:19;47.30;43.29;61.22;;
70077;Laerm;57448;51.490;5.436;2024-02-28T08:26:44;49.76;42.67;64.91;;
70077;Laerm;57448;51.490;5.436;2024-02-28T08:29:09;48.18;42.94;63.14;;
70077;Laerm;57448;51.490;5.436;2024-02-28T08:31:39;55.27;42.49;68.15;;
70077;Laerm;57448;51.490;5.436;2024-02-28T08:34:04;49.55;42.41;64.03;;
70077;Laerm;57448;51.490;5.436;2024-02-28T08:36:30;49.77;42.40;63.78;;
70077;Laerm;57448;51.490;5.436;2024-02-28T08:38:55;47.82;42.78;61.11;;
70077;Laerm;57448;51.490;5.436;2024-02-28T08:41:21;55.37;42.40;69.01;;
70077;Laerm;57448;51.490;5.436;2024-02-28T08:43:46;54.59;43.17;69.64;;
70077;Laerm;57448;51.490;5.436;2024-02-28T08:46:14;47.63;42.30;61.41;;
70077;Laerm;57448;51.490;5.436;2024-02-28T08:48:39;46.82;42.84;62.02;;
70077;Laerm;57448;51.490;5.436;2024-02-28T08:51:05;48.55;42.98;64.01;;
70077;Laerm;57448;51.490;5.436;2024-02-28T08:53:30;45.12;42.47;57.44;;
70077;Laerm;57448;51.490;5.436;2024-02-28T08:55:56;44.47;41.56;57.26;;
70077;Laerm;57448;51.490;5.436;2024-02-28T08:58:21;44.44;40.64;56.09;;
70077;Laerm;57448;51.490;5.436;2024-02-28T09:00:46;48.35;41.74;65.69;;
70077;Laerm;57448;51.490;5.436;2024-02-28T09:03:12;51.76;41.82;69.70;;
70077;Laerm;57448;51.490;5.436;2024-02-28T09:05:37;43.86;41.27;54.58;;
70077;Laerm;57448;51.490;5.436;2024-02-28T09:08:03;46.07;40.93;64.12;;
70077;Laerm;57448;51.490;5.436;2024-02-28T09:10:28;45.38;40.70;58.84;;
70077;Laerm;57448;51.490;5.436;2024-02-28T09:12:56;48.92;40.56;63.93;;
70077;Laerm;57448;51.490;5.436;2024-02-28T09:15:21;55.41;41.11;68.54;;
70077;Laerm;57448;51.490;5.436;2024-02-28T09:17:47;50.45;41.94;65.22;;
70077;Laerm;57448;51.490;5.436;2024-02-28T09:20:12;54.79;42.73;70.01;;
70077;Laerm;57448;51.490;5.436;2024-02-28T09:22:38;56.07;41.86;68.76;;
70077;Laerm;57448;51.490;5.436;2024-02-28T09:25:03;43.75;41.21;52.96;;
70077;Laerm;57448;51.490;5.436;2024-02-28T09:27:29;43.56;41.63;52.59;;
70077;Laerm;57448;51.490;5.436;2024-02-28T09:29:55;49.02;40.76;63.20;;
70077;Laerm;57448;51.490;5.436;2024-02-28T09:32:20;44.37;41.38;60.76;;
70077;Laerm;57448;51.490;5.436;2024-02-28T09:34:46;45.81;41.81;57.44;;
70077;Laerm;57448;51.490;5.436;2024-02-28T09:37:11;53.18;41.63;63.45;;
70077;Laerm;57448;51.490;5.436;2024-02-28T09:39:40;53.72;43.49;62.03;;
70077;Laerm;57448;51.490;5.436;2024-02-28T09:42:06;53.48;43.34;61.31;;
70077;Laerm;57448;51.490;5.436;2024-02-28T09:44:32;53.07;41.27;63.19;;
70077;Laerm;57448;51.490;5.436;2024-02-28T09:46:57;57.96;40.99;69.11;;
70077;Laerm;57448;51.490;5.436;2024-02-28T09:49:23;49.60;38.29;63.52;;
70077;Laerm;57448;51.490;5.436;2024-02-28T09:51:49;52.46;38.70;62.92;;
70077;Laerm;57448;51.490;5.436;2024-02-28T09:54:16;50.33;38.36;60.76;;
70077;Laerm;57448;51.490;5.436;2024-02-28T09:56:41;46.94;37.81;67.83;;
70077;Laerm;57448;51.490;5.436;2024-02-28T09:59:06;56.85;38.41;67.93;;
70077;Laerm;57448;51.490;5.436;2024-02-28T10:01:33;54.67;41.26;67.80;;
70077;Laerm;57448;51.490;5.436;2024-02-28T10:04:02;53.69;40.39;63.80;;
70077;Laerm;57448;51.490;5.436;2024-02-28T10:06:27;50.20;41.14;62.36;;
70077;Laerm;57448;51.490;5.436;2024-02-28T10:08:53;48.92;38.09;60.47;;
70077;Laerm;57448;51.490;5.436;2024-02-28T10:11:19;45.10;38.08;60.11;;
70077;Laerm;57448;51.490;5.436;2024-02-28T10:13:45;53.99;38.94;72.27;;
70077;Laerm;57448;51.490;5.436;2024-02-28T10:16:11;44.53;38.46;61.36;;
70077;Laerm;57448;51.490;5.436;2024-02-28T10:18:36;44.68;38.21;60.19;;
70077;Laerm;57448;51.490;5.436;2024-02-28T10:21:02;49.57;38.59;70.45;;
70077;Laerm;57448;51.490;5.436;2024-02-28T10:23:28;43.50;38.74;57.38;;
70077;Laerm;57448;51.490;5.436;2024-02-28T10:25:53;44.88;38.33;65.72;;
70077;Laerm;57448;51.490;5.436;2024-02-28T10:28:19;41.90;38.10;56.46;;
70077;Laerm;57448;51.490;5.436;2024-02-28T10:30:44;50.29;38.41;72.27;;
70077;Laerm;57448;51.490;5.436;2024-02-28T10:33:26;41.74;38.21;55.63;;
70077;Laerm;57448;51.490;5.436;2024-02-28T10:35:54;41.27;38.51;58.51;;
70077;Laerm;57448;51.490;5.436;2024-02-28T10:38:19;42.46;38.29;54.03;;
70077;Laerm;57448;51.490;5.436;2024-02-28T10:40:45;43.42;38.57;56.62;;
70077;Laerm;57448;51.490;5.436;2024-02-28T10:43:12;44.27;38.57;65.51;;
70077;Laerm;57448;51.490;5.436;2024-02-28T10:45:38;48.06;37.97;63.86;;
70077;Laerm;57448;51.490;5.436;2024-02-28T10:48:03;51.58;38.23;65.41;;
70077;Laerm;57448;51.490;5.436;2024-02-28T10:50:29;45.41;38.84;61.86;;
70077;Laerm;57448;51.490;5.436;2024-02-28T10:52:54;46.81;38.96;69.45;;
70077;Laerm;57448;51.490;5.436;2024-02-28T10:55:25;54.17;38.36;71.25;;
70077;Laerm;57448;51.490;5.436;2024-02-28T10:57:58;48.94;38.43;68.71;;
70077;Laerm;57448;51.490;5.436;2024-02-28T11:00:26;53.79;39.01;69.65;;
70077;Laerm;57448;51.490;5.436;2024-02-28T11:02:52;45.01;39.76;57.12;;
70077;Laerm;57448;51.490;5.436;2024-02-28T11:05:18;41.96;38.20;59.70;;
70077;Laerm;57448;51.490;5.436;2024-02-28T11:07:43;42.06;37.59;59.83;;
70077;Laerm;57448;51.490;5.436;2024-02-28T11:10:08;44.51;36.98;60.19;;
70077;Laerm;57448;51.490;5.436;2024-02-28T11:12:35;40.15;37.89;48.22;;
70077;Laerm;57448;51.490;5.436;2024-02-28T11:15:02;48.60;37.71;64.79;;
70077;Laerm;57448;51.490;5.436;2024-02-28T11:17:29;41.00;37.43;51.85;;
70077;Laerm;57448;51.490;5.436;2024-02-28T11:19:54;39.63;37.10;45.68;;
70077;Laerm;57448;51.490;5.436;2024-02-28T11:22:20;41.41;37.13;54.52;;
70077;Laerm;57448;51.490;5.436;2024-02-28T11:24:46;44.65;37.42;57.28;;
70077;Laerm;57448;51.490;5.436;2024-02-28T11:27:12;43.48;36.99;59.20;;
70077;Laerm;57448;51.490;5.436;2024-02-28T11:29:40;44.04;37.40;58.93;;
70077;Laerm;57448;51.490;5.436;2024-02-28T11:32:06;54.06;39.94;65.84;;
70077;Laerm;57448;51.490;5.436;2024-02-28T11:34:33;53.93;39.37;71.75;;
70077;Laerm;57448;51.490;5.436;2024-02-28T11:36:58;46.85;37.92;63.23;;
70077;Laerm;57448;51.490;5.436;2024-02-28T11:39:24;52.62;37.52;66.16;;
70077;Laerm;57448;51.490;5.436;2024-02-28T11:41:50;43.33;38.58;62.77;;
70077;Laerm;57448;51.490;5.436;2024-02-28T11:44:15;40.55;38.32;54.62;;
70077;Laerm;57448;51.490;5.436;2024-02-28T11:46:48;40.57;38.10;52.07;;
70077;Laerm;57448;51.490;5.436;2024-02-28T11:49:14;49.01;37.84;61.45;;
70077;Laerm;57448;51.490;5.436;2024-02-28T11:51:40;45.68;37.74;60.04;;
70077;Laerm;57448;51.490;5.436;2024-02-28T11:54:05;42.59;38.12;56.59;;
70077;Laerm;57448;51.490;5.436;2024-02-28T11:56:32;45.05;38.35;65.27;;
70077;Laerm;57448;51.490;5.436;2024-02-28T11:58:58;47.98;37.44;72.33;;
70077;Laerm;57448;51.490;5.436;2024-02-28T12:01:36;43.24;37.30;55.52;;
70077;Laerm;57448;51.490;5.436;2024-02-28T12:04:02;41.24;37.30;49.31;;
70077;Laerm;57448;51.490;5.436;2024-02-28T12:06:29;52.31;37.68;64.84;;
70077;Laerm;57448;51.490;5.436;2024-02-28T12:08:54;46.31;36.54;61.10;;
70077;Laerm;57448;51.490;5.436;2024-02-28T12:11:20;45.64;37.07;60.65;;
70077;Laerm;57448;51.490;5.436;2024-02-28T12:13:45;42.19;37.62;61.50;;
70077;Laerm;57448;51.490;5.436;2024-02-28T12:16:10;43.57;37.18;66.75;;
70077;Laerm;57448;51.490;5.436;2024-02-28T12:18:36;48.50;37.31;66.06;;
70077;Laerm;57448;51.490;5.436;2024-02-28T12:21:02;51.22;38.73;64.87;;
70077;Laerm;57448;51.490;5.436;2024-02-28T12:23:27;54.31;38.80;68.40;;
70077;Laerm;57448;51.490;5.436;2024-02-28T12:25:52;40.00;37.37;44.21;;
70077;Laerm;57448;51.490;5.436;2024-02-28T12:28:18;52.39;37.45;69.36;;
70077;Laerm;57448;51.490;5.436;2024-02-28T12:30:43;42.36;37.71;53.64;;
70077;Laerm;57448;51.490;5.436;2024-02-28T12:33:10;52.89;38.15;79.50;;
70077;Laerm;57448;51.490;5.436;2024-02-28T12:35:36;53.43;38.66;79.00;;
70077;Laerm;57448;51.490;5.436;2024-02-28T12:38:01;46.36;38.10;58.91;;
70077;Laerm;57448;51.490;5.436;2024-02-28T12:40:27;40.58;37.71;53.51;;
70077;Laerm;57448;51.490;5.436;2024-02-28T12:42:52;46.37;38.84;66.60;;
70077;Laerm;57448;51.490;5.436;2024-02-28T12:45:18;42.65;38.33;60.89;;
70077;Laerm;57448;51.490;5.436;2024-02-28T12:47:43;40.67;38.52;48.54;;
70077;Laerm;57448;51.490;5.436;2024-02-28T12:50:08;41.66;39.12;49.39;;
70077;Laerm;57448;51.490;5.436;2024-02-28T12:52:34;41.84;39.36;49.44;;
70077;Laerm;57448;51.490;5.436;2024-02-28T12:55:00;42.96;39.35;48.98;;
70077;Laerm;57448;51.490;5.436;2024-02-28T12:57:26;43.65;39.04;55.80;;
70077;Laerm;57448;51.490;5.436;2024-02-28T12:59:51;40.69;38.42;50.98;;
70077;Laerm;57448;51.490;5.436;2024-02-28T13:02:16;50.15;38.47;68.76;;
70077;Laerm;57448;51.490;5.436;2024-02-28T13:04:44;52.22;39.04;70.80;;
70077;Laerm;57448;51.490;5.436;2024-02-28T13:07:09;54.61;38.51;67.63;;
70077;Laerm;57448;51.490;5.436;2024-02-28T13:09:35;43.78;38.30;64.00;;
70077;Laerm;57448;51.490;5.436;2024-02-28T13:12:00;50.43;37.54;74.01;;
70077;Laerm;57448;51.490;5.436;2024-02-28T13:14:27;43.86;37.19;59.63;;
70077;Laerm;57448;51.490;5.436;2024-02-28T13:16:52;50.95;37.34;67.54;;
70077;Laerm;57448;51.490;5.436;2024-02-28T13:19:19;53.42;37.12;71.21;;
70077;Laerm;57448;51.490;5.436;2024-02-28T13:21:45;54.08;38.05;70.70;;
70077;Laerm;57448;51.490;5.436;2024-02-28T13:24:10;40.06;37.74;46.30;;
70077;Laerm;57448;51.490;5.436;2024-02-28T13:26:36;40.34;38.17;46.00;;
70077;Laerm;57448;51.490;5.436;2024-02-28T13:29:01;54.20;38.92;71.89;;
70077;Laerm;57448;51.490;5.436;2024-02-28T13:31:27;55.13;39.27;69.17;;
70077;Laerm;57448;51.490;5.436;2024-02-28T13:33:53;49.89;39.91;63.35;;
70077;Laerm;57448;51.490;5.436;2024-02-28T13:36:18;52.08;39.62;66.29;;